sensor_id;sensor_type;location;lat;lon;timestamp;P1;durP1;ratioP1;P2;durP2;ratioP2
14770;SDS011;7477;45.222;5.688;2022-08-25T00:05:15;4.13;;;3.60;;
14770;SDS011;7477;45.222;5.688;2022-08-25T00:08:35;4.07;;;3.38;;
14770;SDS011;7477;45.222;5.688;2022-08-25T00:11:56;3.65;;;3.17;;
14770;SDS011;7477;45.222;5.688;2022-08-25T00:15:16;4.25;;;3.20;;
14770;SDS011;7477;45.222;5.688;2022-08-25T00:18:35;3.50;;;3.20;;
14770;SDS011;7477;45.222;5.688;2022-08-25T00:21:55;5.95;;;3.53;;
14770;SDS011;7477;45.222;5.688;2022-08-25T00:25:15;4.85;;;3.60;;
14770;SDS011;7477;45.222;5.688;2022-08-25T00:28:36;3.35;;;3.05;;
14770;SDS011;7477;45.222;5.688;2022-08-25T00:31:57;4.30;;;3.53;;
14770;SDS011;7477;45.222;5.688;2022-08-25T00:35:17;7.03;;;3.40;;
14770;SDS011;7477;45.222;5.688;2022-08-25T00:38:38;4.43;;;3.60;;
14770;SDS011;7477;45.222;5.688;2022-08-25T00:41:58;6.05;;;3.95;;
14770;SDS011;7477;45.222;5.688;2022-08-25T00:45:18;3.47;;;3.17;;
14770;SDS011;7477;45.222;5.688;2022-08-25T00:48:38;4.78;;;3.50;;
14770;SDS011;7477;45.222;5.688;2022-08-25T00:52:01;5.25;;;4.15;;
14770;SDS011;7477;45.222;5.688;2022-08-25T00:55:29;4.35;;;3.95;;
14770;SDS011;7477;45.222;5.688;2022-08-25T00:58:52;4.78;;;3.40;;
14770;SDS011;7477;45.222;5.688;2022-08-25T01:02:12;4.72;;;4.22;;
14770;SDS011;7477;45.222;5.688;2022-08-25T01:05:33;6.78;;;4.05;;
14770;SDS011;7477;45.222;5.688;2022-08-25T01:08:53;5.07;;;3.80;;
14770;SDS011;7477;45.222;5.688;2022-08-25T01:12:13;3.85;;;3.45;;
14770;SDS011;7477;45.222;5.688;2022-08-25T01:15:33;6.68;;;3.88;;
14770;SDS011;7477;45.222;5.688;2022-08-25T01:18:54;6.03;;;3.78;;
14770;SDS011;7477;45.222;5.688;2022-08-25T01:22:15;4.85;;;4.03;;
14770;SDS011;7477;45.222;5.688;2022-08-25T01:29:19;5.35;;;4.05;;
14770;SDS011;7477;45.222;5.688;2022-08-25T01:32:38;5.88;;;3.78;;
14770;SDS011;7477;45.222;5.688;2022-08-25T01:35:57;5.03;;;3.63;;
14770;SDS011;7477;45.222;5.688;2022-08-25T01:39:17;5.75;;;3.55;;
14770;SDS011;7477;45.222;5.688;2022-08-25T01:42:52;3.97;;;3.58;;
14770;SDS011;7477;45.222;5.688;2022-08-25T01:46:24;7.63;;;4.03;;
14770;SDS011;7477;45.222;5.688;2022-08-25T01:49:44;3.90;;;3.60;;
14770;SDS011;7477;45.222;5.688;2022-08-25T01:56:32;4.60;;;4.10;;
14770;SDS011;7477;45.222;5.688;2022-08-25T01:59:52;7.63;;;4.10;;
14770;SDS011;7477;45.222;5.688;2022-08-25T02:03:11;3.92;;;3.50;;
14770;SDS011;7477;45.222;5.688;2022-08-25T02:06:31;4.65;;;3.53;;
14770;SDS011;7477;45.222;5.688;2022-08-25T02:09:52;4.40;;;3.50;;
14770;SDS011;7477;45.222;5.688;2022-08-25T02:13:12;4.15;;;3.75;;
14770;SDS011;7477;45.222;5.688;2022-08-25T02:16:33;6.88;;;3.60;;
14770;SDS011;7477;45.222;5.688;2022-08-25T02:19:54;3.97;;;3.58;;
14770;SDS011;7477;45.222;5.688;2022-08-25T02:23:14;5.80;;;4.03;;
14770;SDS011;7477;45.222;5.688;2022-08-25T02:26:34;5.47;;;3.50;;
14770;SDS011;7477;45.222;5.688;2022-08-25T02:29:54;5.75;;;3.45;;
14770;SDS011;7477;45.222;5.688;2022-08-25T02:33:13;5.60;;;3.67;;
14770;SDS011;7477;45.222;5.688;2022-08-25T02:36:32;6.80;;;3.50;;
14770;SDS011;7477;45.222;5.688;2022-08-25T02:39:52;5.28;;;3.58;;
14770;SDS011;7477;45.222;5.688;2022-08-25T02:43:11;3.97;;;3.60;;
14770;SDS011;7477;45.222;5.688;2022-08-25T02:46:31;4.78;;;4.03;;
14770;SDS011;7477;45.222;5.688;2022-08-25T02:49:50;4.35;;;3.67;;
14770;SDS011;7477;45.222;5.688;2022-08-25T02:53:10;4.15;;;3.75;;
14770;SDS011;7477;45.222;5.688;2022-08-25T02:56:29;4.00;;;3.03;;
14770;SDS011;7477;45.222;5.688;2022-08-25T02:59:50;4.28;;;3.88;;
14770;SDS011;7477;45.222;5.688;2022-08-25T03:03:09;4.70;;;3.85;;
14770;SDS011;7477;45.222;5.688;2022-08-25T03:06:28;4.32;;;3.92;;
14770;SDS011;7477;45.222;5.688;2022-08-25T03:09:48;6.88;;;4.13;;
14770;SDS011;7477;45.222;5.688;2022-08-25T03:13:07;4.60;;;4.00;;
14770;SDS011;7477;45.222;5.688;2022-08-25T03:16:26;7.70;;;3.75;;
14770;SDS011;7477;45.222;5.688;2022-08-25T03:19:46;5.82;;;4.45;;
14770;SDS011;7477;45.222;5.688;2022-08-25T03:23:05;4.40;;;4.00;;
14770;SDS011;7477;45.222;5.688;2022-08-25T03:26:25;4.93;;;3.97;;
14770;SDS011;7477;45.222;5.688;2022-08-25T03:30:04;6.20;;;3.80;;
14770;SDS011;7477;45.222;5.688;2022-08-25T03:33:25;5.63;;;4.25;;
14770;SDS011;7477;45.222;5.688;2022-08-25T03:36:48;5.63;;;3.63;;
14770;SDS011;7477;45.222;5.688;2022-08-25T03:40:11;4.53;;;4.13;;
14770;SDS011;7477;45.222;5.688;2022-08-25T03:43:31;5.90;;;3.78;;
14770;SDS011;7477;45.222;5.688;2022-08-25T03:46:50;4.50;;;4.10;;
14770;SDS011;7477;45.222;5.688;2022-08-25T03:50:10;5.72;;;4.07;;
14770;SDS011;7477;45.222;5.688;2022-08-25T03:53:30;4.68;;;3.65;;
14770;SDS011;7477;45.222;5.688;2022-08-25T03:56:49;4.72;;;3.85;;
14770;SDS011;7477;45.222;5.688;2022-08-25T04:00:09;4.63;;;3.47;;
14770;SDS011;7477;45.222;5.688;2022-08-25T04:03:30;5.20;;;3.67;;
14770;SDS011;7477;45.222;5.688;2022-08-25T04:06:49;7.90;;;4.13;;
14770;SDS011;7477;45.222;5.688;2022-08-25T04:10:09;5.32;;;3.80;;
14770;SDS011;7477;45.222;5.688;2022-08-25T04:13:28;5.30;;;3.83;;
14770;SDS011;7477;45.222;5.688;2022-08-25T04:16:48;3.95;;;3.65;;
14770;SDS011;7477;45.222;5.688;2022-08-25T04:20:09;4.35;;;3.85;;
14770;SDS011;7477;45.222;5.688;2022-08-25T04:23:29;4.43;;;4.03;;
14770;SDS011;7477;45.222;5.688;2022-08-25T04:26:49;4.72;;;3.70;;
14770;SDS011;7477;45.222;5.688;2022-08-25T04:30:09;5.43;;;3.75;;
14770;SDS011;7477;45.222;5.688;2022-08-25T04:33:29;4.72;;;3.92;;
14770;SDS011;7477;45.222;5.688;2022-08-25T04:36:48;6.07;;;3.90;;
14770;SDS011;7477;45.222;5.688;2022-08-25T04:40:11;4.00;;;3.70;;
14770;SDS011;7477;45.222;5.688;2022-08-25T04:43:31;4.28;;;3.88;;
14770;SDS011;7477;45.222;5.688;2022-08-25T04:46:51;4.63;;;3.78;;
14770;SDS011;7477;45.222;5.688;2022-08-25T04:50:10;6.35;;;4.68;;
14770;SDS011;7477;45.222;5.688;2022-08-25T04:53:30;8.38;;;3.72;;
14770;SDS011;7477;45.222;5.688;2022-08-25T04:56:51;5.03;;;4.00;;
14770;SDS011;7477;45.222;5.688;2022-08-25T05:00:11;5.30;;;4.05;;
14770;SDS011;7477;45.222;5.688;2022-08-25T05:03:31;4.35;;;3.95;;
14770;SDS011;7477;45.222;5.688;2022-08-25T05:06:51;3.72;;;3.42;;
14770;SDS011;7477;45.222;5.688;2022-08-25T05:10:10;5.13;;;3.75;;
14770;SDS011;7477;45.222;5.688;2022-08-25T05:13:30;4.72;;;4.00;;
14770;SDS011;7477;45.222;5.688;2022-08-25T05:16:49;7.40;;;4.57;;
14770;SDS011;7477;45.222;5.688;2022-08-25T05:20:08;7.15;;;4.10;;
14770;SDS011;7477;45.222;5.688;2022-08-25T05:23:28;6.65;;;4.43;;
14770;SDS011;7477;45.222;5.688;2022-08-25T05:26:47;6.60;;;4.07;;
14770;SDS011;7477;45.222;5.688;2022-08-25T05:30:07;7.20;;;3.90;;
14770;SDS011;7477;45.222;5.688;2022-08-25T05:33:30;6.88;;;4.13;;
14770;SDS011;7477;45.222;5.688;2022-08-25T05:36:49;14.48;;;4.72;;
14770;SDS011;7477;45.222;5.688;2022-08-25T05:40:09;6.93;;;4.40;;
14770;SDS011;7477;45.222;5.688;2022-08-25T05:43:28;4.90;;;4.40;;
14770;SDS011;7477;45.222;5.688;2022-08-25T05:46:48;4.32;;;3.85;;
14770;SDS011;7477;45.222;5.688;2022-08-25T05:50:08;6.93;;;4.35;;
14770;SDS011;7477;45.222;5.688;2022-08-25T05:53:29;5.45;;;4.45;;
14770;SDS011;7477;45.222;5.688;2022-08-25T05:56:49;7.60;;;4.50;;
14770;SDS011;7477;45.222;5.688;2022-08-25T06:00:08;6.93;;;4.38;;
14770;SDS011;7477;45.222;5.688;2022-08-25T06:03:28;4.53;;;4.10;;
14770;SDS011;7477;45.222;5.688;2022-08-25T06:06:48;5.72;;;4.03;;
14770;SDS011;7477;45.222;5.688;2022-08-25T06:10:11;6.93;;;4.43;;
14770;SDS011;7477;45.222;5.688;2022-08-25T06:13:31;4.65;;;4.22;;
14770;SDS011;7477;45.222;5.688;2022-08-25T06:16:51;7.93;;;4.18;;
14770;SDS011;7477;45.222;5.688;2022-08-25T06:20:13;5.18;;;4.60;;
14770;SDS011;7477;45.222;5.688;2022-08-25T06:23:35;5.18;;;3.95;;
14770;SDS011;7477;45.222;5.688;2022-08-25T06:26:55;5.25;;;3.90;;
14770;SDS011;7477;45.222;5.688;2022-08-25T06:30:16;4.90;;;4.20;;
14770;SDS011;7477;45.222;5.688;2022-08-25T06:33:37;4.63;;;4.18;;
14770;SDS011;7477;45.222;5.688;2022-08-25T06:36:57;6.80;;;4.22;;
14770;SDS011;7477;45.222;5.688;2022-08-25T06:40:16;6.00;;;4.32;;
14770;SDS011;7477;45.222;5.688;2022-08-25T06:43:35;8.82;;;4.65;;
14770;SDS011;7477;45.222;5.688;2022-08-25T06:46:56;5.40;;;4.00;;
14770;SDS011;7477;45.222;5.688;2022-08-25T06:50:15;6.45;;;4.10;;
14770;SDS011;7477;45.222;5.688;2022-08-25T06:53:35;6.18;;;4.53;;
14770;SDS011;7477;45.222;5.688;2022-08-25T06:56:55;6.78;;;4.38;;
14770;SDS011;7477;45.222;5.688;2022-08-25T07:00:14;5.10;;;4.13;;
14770;SDS011;7477;45.222;5.688;2022-08-25T07:03:35;6.05;;;4.32;;
14770;SDS011;7477;45.222;5.688;2022-08-25T07:06:54;9.18;;;4.97;;
14770;SDS011;7477;45.222;5.688;2022-08-25T07:10:14;9.82;;;4.15;;
14770;SDS011;7477;45.222;5.688;2022-08-25T07:13:33;4.60;;;4.20;;
14770;SDS011;7477;45.222;5.688;2022-08-25T07:16:53;5.82;;;4.30;;
14770;SDS011;7477;45.222;5.688;2022-08-25T07:20:13;7.20;;;4.60;;
14770;SDS011;7477;45.222;5.688;2022-08-25T07:23:34;5.10;;;4.60;;
14770;SDS011;7477;45.222;5.688;2022-08-25T07:26:53;6.93;;;4.70;;
14770;SDS011;7477;45.222;5.688;2022-08-25T07:30:13;4.97;;;4.32;;
14770;SDS011;7477;45.222;5.688;2022-08-25T07:33:33;6.20;;;4.32;;
14770;SDS011;7477;45.222;5.688;2022-08-25T07:36:54;5.70;;;4.38;;
14770;SDS011;7477;45.222;5.688;2022-08-25T07:40:22;4.68;;;4.28;;
14770;SDS011;7477;45.222;5.688;2022-08-25T07:43:45;10.02;;;4.95;;
14770;SDS011;7477;45.222;5.688;2022-08-25T07:47:05;11.73;;;4.57;;
14770;SDS011;7477;45.222;5.688;2022-08-25T07:50:26;5.90;;;4.78;;
14770;SDS011;7477;45.222;5.688;2022-08-25T07:53:46;9.23;;;4.13;;
14770;SDS011;7477;45.222;5.688;2022-08-25T07:57:07;6.45;;;4.78;;
14770;SDS011;7477;45.222;5.688;2022-08-25T08:00:27;4.80;;;3.80;;
14770;SDS011;7477;45.222;5.688;2022-08-25T08:03:47;4.50;;;4.10;;
14770;SDS011;7477;45.222;5.688;2022-08-25T08:07:08;4.47;;;3.90;;
14770;SDS011;7477;45.222;5.688;2022-08-25T08:10:27;4.20;;;3.80;;
14770;SDS011;7477;45.222;5.688;2022-08-25T08:13:47;5.28;;;3.78;;
14770;SDS011;7477;45.222;5.688;2022-08-25T08:17:08;4.43;;;3.60;;
14770;SDS011;7477;45.222;5.688;2022-08-25T08:20:29;5.05;;;3.47;;
14770;SDS011;7477;45.222;5.688;2022-08-25T08:23:52;4.28;;;3.85;;
14770;SDS011;7477;45.222;5.688;2022-08-25T08:27:12;6.93;;;4.05;;
14770;SDS011;7477;45.222;5.688;2022-08-25T08:30:32;5.05;;;4.22;;
14770;SDS011;7477;45.222;5.688;2022-08-25T08:33:56;4.22;;;3.78;;
14770;SDS011;7477;45.222;5.688;2022-08-25T08:37:16;3.50;;;3.25;;
14770;SDS011;7477;45.222;5.688;2022-08-25T08:40:38;4.65;;;4.00;;
14770;SDS011;7477;45.222;5.688;2022-08-25T08:51:40;4.07;;;3.70;;
14770;SDS011;7477;45.222;5.688;2022-08-25T08:55:10;4.15;;;2.95;;
14770;SDS011;7477;45.222;5.688;2022-08-25T08:58:49;3.10;;;2.78;;
14770;SDS011;7477;45.222;5.688;2022-08-25T09:02:17;3.03;;;2.83;;
14770;SDS011;7477;45.222;5.688;2022-08-25T09:05:49;3.10;;;2.80;;
14770;SDS011;7477;45.222;5.688;2022-08-25T09:09:12;6.05;;;3.67;;
14770;SDS011;7477;45.222;5.688;2022-08-25T09:20:31;2.97;;;2.70;;
14770;SDS011;7477;45.222;5.688;2022-08-25T09:27:40;5.32;;;4.00;;
14770;SDS011;7477;45.222;5.688;2022-08-25T09:31:04;4.80;;;3.70;;
14770;SDS011;7477;45.222;5.688;2022-08-25T09:34:33;5.65;;;3.60;;
14770;SDS011;7477;45.222;5.688;2022-08-25T09:37:54;2.90;;;2.60;;
14770;SDS011;7477;45.222;5.688;2022-08-25T09:41:17;3.05;;;2.75;;
14770;SDS011;7477;45.222;5.688;2022-08-25T09:44:52;3.30;;;3.00;;
14770;SDS011;7477;45.222;5.688;2022-08-25T09:48:25;3.00;;;2.80;;
14770;SDS011;7477;45.222;5.688;2022-08-25T09:52:15;3.13;;;2.83;;
14770;SDS011;7477;45.222;5.688;2022-08-25T09:55:43;2.70;;;2.50;;
14770;SDS011;7477;45.222;5.688;2022-08-25T10:02:42;3.28;;;2.88;;
14770;SDS011;7477;45.222;5.688;2022-08-25T10:06:12;3.92;;;3.25;;
14770;SDS011;7477;45.222;5.688;2022-08-25T10:09:34;3.70;;;3.10;;
14770;SDS011;7477;45.222;5.688;2022-08-25T10:12:59;3.00;;;2.80;;
14770;SDS011;7477;45.222;5.688;2022-08-25T10:16:22;3.28;;;2.90;;
14770;SDS011;7477;45.222;5.688;2022-08-25T10:19:44;4.28;;;3.42;;
14770;SDS011;7477;45.222;5.688;2022-08-25T10:23:11;3.58;;;3.28;;
14770;SDS011;7477;45.222;5.688;2022-08-25T10:30:21;3.58;;;3.28;;
14770;SDS011;7477;45.222;5.688;2022-08-25T10:40:48;5.30;;;4.00;;
14770;SDS011;7477;45.222;5.688;2022-08-25T10:52:00;6.53;;;4.40;;
14770;SDS011;7477;45.222;5.688;2022-08-25T10:59:39;4.70;;;4.18;;
14770;SDS011;7477;45.222;5.688;2022-08-25T11:06:49;4.38;;;3.30;;
14770;SDS011;7477;45.222;5.688;2022-08-25T11:11:04;4.57;;;3.20;;
14770;SDS011;7477;45.222;5.688;2022-08-25T11:18:19;3.85;;;3.50;;
14770;SDS011;7477;45.222;5.688;2022-08-25T11:21:44;3.55;;;3.25;;
14770;SDS011;7477;45.222;5.688;2022-08-25T11:25:42;3.53;;;2.90;;
14770;SDS011;7477;45.222;5.688;2022-08-25T11:29:05;5.70;;;2.47;;
14770;SDS011;7477;45.222;5.688;2022-08-25T11:32:30;3.78;;;2.30;;
14770;SDS011;7477;45.222;5.688;2022-08-25T11:36:04;3.20;;;2.85;;
14770;SDS011;7477;45.222;5.688;2022-08-25T11:43:55;2.72;;;2.50;;
14770;SDS011;7477;45.222;5.688;2022-08-25T11:51:10;2.78;;;2.50;;
14770;SDS011;7477;45.222;5.688;2022-08-25T11:54:46;2.90;;;2.60;;
14770;SDS011;7477;45.222;5.688;2022-08-25T11:58:40;6.40;;;3.00;;
14770;SDS011;7477;45.222;5.688;2022-08-25T12:02:26;5.55;;;2.80;;
14770;SDS011;7477;45.222;5.688;2022-08-25T12:17:04;2.50;;;2.30;;
14770;SDS011;7477;45.222;5.688;2022-08-25T12:24:14;2.55;;;2.30;;
14770;SDS011;7477;45.222;5.688;2022-08-25T12:27:49;2.03;;;1.88;;
14770;SDS011;7477;45.222;5.688;2022-08-25T12:38:47;3.00;;;2.08;;
14770;SDS011;7477;45.222;5.688;2022-08-25T12:42:17;1.60;;;1.50;;
14770;SDS011;7477;45.222;5.688;2022-08-25T12:45:43;3.55;;;1.80;;
14770;SDS011;7477;45.222;5.688;2022-08-25T12:49:33;2.95;;;1.80;;
14770;SDS011;7477;45.222;5.688;2022-08-25T12:52:54;2.50;;;1.63;;
14770;SDS011;7477;45.222;5.688;2022-08-25T12:56:28;1.70;;;1.60;;
14770;SDS011;7477;45.222;5.688;2022-08-25T12:59:57;2.00;;;1.80;;
14770;SDS011;7477;45.222;5.688;2022-08-25T13:03:40;1.58;;;1.48;;
14770;SDS011;7477;45.222;5.688;2022-08-25T13:10:48;1.60;;;1.45;;
14770;SDS011;7477;45.222;5.688;2022-08-25T13:14:24;3.05;;;1.95;;
14770;SDS011;7477;45.222;5.688;2022-08-25T13:17:52;2.20;;;2.00;;
14770;SDS011;7477;45.222;5.688;2022-08-25T13:24:40;2.72;;;2.05;;
14770;SDS011;7477;45.222;5.688;2022-08-25T13:28:02;2.38;;;2.03;;
14770;SDS011;7477;45.222;5.688;2022-08-25T13:31:24;3.08;;;1.90;;
14770;SDS011;7477;45.222;5.688;2022-08-25T13:34:46;1.90;;;1.80;;
14770;SDS011;7477;45.222;5.688;2022-08-25T13:38:12;2.13;;;1.80;;
14770;SDS011;7477;45.222;5.688;2022-08-25T13:41:35;4.80;;;3.25;;
14770;SDS011;7477;45.222;5.688;2022-08-25T13:44:54;2.10;;;1.85;;
14770;SDS011;7477;45.222;5.688;2022-08-25T13:48:30;1.75;;;1.65;;
14770;SDS011;7477;45.222;5.688;2022-08-25T13:51:57;3.17;;;2.03;;
14770;SDS011;7477;45.222;5.688;2022-08-25T13:55:21;4.10;;;1.75;;
14770;SDS011;7477;45.222;5.688;2022-08-25T13:58:48;2.72;;;2.00;;
14770;SDS011;7477;45.222;5.688;2022-08-25T14:02:10;4.97;;;2.15;;
14770;SDS011;7477;45.222;5.688;2022-08-25T14:05:35;1.77;;;1.67;;
14770;SDS011;7477;45.222;5.688;2022-08-25T14:16:14;2.47;;;2.25;;
14770;SDS011;7477;45.222;5.688;2022-08-25T14:19:43;2.47;;;1.80;;
14770;SDS011;7477;45.222;5.688;2022-08-25T14:23:12;3.95;;;2.08;;
14770;SDS011;7477;45.222;5.688;2022-08-25T14:26:34;6.13;;;2.00;;
14770;SDS011;7477;45.222;5.688;2022-08-25T14:29:53;2.30;;;2.10;;
14770;SDS011;7477;45.222;5.688;2022-08-25T14:33:13;2.20;;;2.00;;
14770;SDS011;7477;45.222;5.688;2022-08-25T14:36:34;2.75;;;2.20;;
14770;SDS011;7477;45.222;5.688;2022-08-25T14:39:54;2.60;;;2.03;;
14770;SDS011;7477;45.222;5.688;2022-08-25T14:43:14;2.40;;;1.83;;
14770;SDS011;7477;45.222;5.688;2022-08-25T14:46:35;2.17;;;1.80;;
14770;SDS011;7477;45.222;5.688;2022-08-25T14:49:56;2.20;;;1.80;;
14770;SDS011;7477;45.222;5.688;2022-08-25T14:53:16;2.55;;;2.28;;
14770;SDS011;7477;45.222;5.688;2022-08-25T14:56:35;2.25;;;1.85;;
14770;SDS011;7477;45.222;5.688;2022-08-25T14:59:54;3.38;;;1.98;;
14770;SDS011;7477;45.222;5.688;2022-08-25T15:03:17;4.80;;;2.05;;
14770;SDS011;7477;45.222;5.688;2022-08-25T15:06:43;3.25;;;1.85;;
14770;SDS011;7477;45.222;5.688;2022-08-25T15:10:03;2.85;;;1.80;;
14770;SDS011;7477;45.222;5.688;2022-08-25T15:13:23;1.92;;;1.63;;
14770;SDS011;7477;45.222;5.688;2022-08-25T15:16:46;2.05;;;1.90;;
14770;SDS011;7477;45.222;5.688;2022-08-25T15:20:08;2.92;;;2.10;;
14770;SDS011;7477;45.222;5.688;2022-08-25T15:23:27;2.30;;;2.10;;
14770;SDS011;7477;45.222;5.688;2022-08-25T15:26:49;1.58;;;1.48;;
14770;SDS011;7477;45.222;5.688;2022-08-25T15:30:17;2.47;;;2.00;;
14770;SDS011;7477;45.222;5.688;2022-08-25T15:33:37;2.75;;;1.70;;
14770;SDS011;7477;45.222;5.688;2022-08-25T15:36:57;4.65;;;1.90;;
14770;SDS011;7477;45.222;5.688;2022-08-25T15:40:23;3.33;;;1.83;;
14770;SDS011;7477;45.222;5.688;2022-08-25T15:43:43;2.25;;;1.50;;
14770;SDS011;7477;45.222;5.688;2022-08-25T15:47:02;2.83;;;1.70;;
14770;SDS011;7477;45.222;5.688;2022-08-25T15:50:22;2.80;;;1.95;;
14770;SDS011;7477;45.222;5.688;2022-08-25T15:53:42;3.92;;;1.55;;
14770;SDS011;7477;45.222;5.688;2022-08-25T15:57:01;4.38;;;2.03;;
14770;SDS011;7477;45.222;5.688;2022-08-25T16:00:21;7.25;;;2.17;;
14770;SDS011;7477;45.222;5.688;2022-08-25T16:03:41;2.33;;;1.80;;
14770;SDS011;7477;45.222;5.688;2022-08-25T16:07:00;1.95;;;1.60;;
14770;SDS011;7477;45.222;5.688;2022-08-25T16:10:19;1.67;;;1.58;;
14770;SDS011;7477;45.222;5.688;2022-08-25T16:13:38;2.00;;;1.88;;
14770;SDS011;7477;45.222;5.688;2022-08-25T16:16:57;1.85;;;1.73;;
14770;SDS011;7477;45.222;5.688;2022-08-25T16:20:17;1.98;;;1.77;;
14770;SDS011;7477;45.222;5.688;2022-08-25T16:23:38;3.00;;;1.90;;
14770;SDS011;7477;45.222;5.688;2022-08-25T16:26:59;4.60;;;1.90;;
14770;SDS011;7477;45.222;5.688;2022-08-25T16:30:22;4.57;;;2.25;;
14770;SDS011;7477;45.222;5.688;2022-08-25T16:33:41;3.72;;;1.75;;
14770;SDS011;7477;45.222;5.688;2022-08-25T16:37:02;8.32;;;2.30;;
14770;SDS011;7477;45.222;5.688;2022-08-25T16:40:21;3.88;;;2.30;;
14770;SDS011;7477;45.222;5.688;2022-08-25T16:43:44;3.83;;;2.00;;
14770;SDS011;7477;45.222;5.688;2022-08-25T16:47:03;4.60;;;2.20;;
14770;SDS011;7477;45.222;5.688;2022-08-25T16:50:22;3.75;;;1.98;;
14770;SDS011;7477;45.222;5.688;2022-08-25T16:53:42;4.90;;;2.42;;
14770;SDS011;7477;45.222;5.688;2022-08-25T16:57:20;3.13;;;2.05;;
14770;SDS011;7477;45.222;5.688;2022-08-25T17:00:39;3.55;;;2.67;;
14770;SDS011;7477;45.222;5.688;2022-08-25T17:03:59;3.70;;;2.17;;
14770;SDS011;7477;45.222;5.688;2022-08-25T17:07:19;1.80;;;1.70;;
14770;SDS011;7477;45.222;5.688;2022-08-25T17:10:39;3.42;;;2.03;;
14770;SDS011;7477;45.222;5.688;2022-08-25T17:14:01;1.83;;;1.65;;
14770;SDS011;7477;45.222;5.688;2022-08-25T17:17:22;2.00;;;1.90;;
14770;SDS011;7477;45.222;5.688;2022-08-25T17:20:42;2.25;;;1.80;;
14770;SDS011;7477;45.222;5.688;2022-08-25T17:24:03;1.73;;;1.63;;
14770;SDS011;7477;45.222;5.688;2022-08-25T17:27:22;1.80;;;1.70;;
14770;SDS011;7477;45.222;5.688;2022-08-25T17:30:41;1.83;;;1.67;;
14770;SDS011;7477;45.222;5.688;2022-08-25T17:34:01;2.20;;;2.00;;
14770;SDS011;7477;45.222;5.688;2022-08-25T17:37:20;1.90;;;1.80;;
14770;SDS011;7477;45.222;5.688;2022-08-25T17:40:39;3.58;;;1.70;;
14770;SDS011;7477;45.222;5.688;2022-08-25T17:44:00;2.55;;;1.70;;
14770;SDS011;7477;45.222;5.688;2022-08-25T17:47:19;6.60;;;1.98;;
14770;SDS011;7477;45.222;5.688;2022-08-25T17:50:39;4.50;;;1.92;;
14770;SDS011;7477;45.222;5.688;2022-08-25T17:54:00;4.82;;;2.10;;
14770;SDS011;7477;45.222;5.688;2022-08-25T17:57:19;1.70;;;1.60;;
14770;SDS011;7477;45.222;5.688;2022-08-25T18:00:39;5.07;;;1.83;;
14770;SDS011;7477;45.222;5.688;2022-08-25T18:03:59;2.95;;;1.83;;
14770;SDS011;7477;45.222;5.688;2022-08-25T18:07:18;2.33;;;2.10;;
14770;SDS011;7477;45.222;5.688;2022-08-25T18:10:37;2.20;;;2.00;;
14770;SDS011;7477;45.222;5.688;2022-08-25T18:13:57;2.80;;;1.80;;
14770;SDS011;7477;45.222;5.688;2022-08-25T18:17:17;1.80;;;1.70;;
14770;SDS011;7477;45.222;5.688;2022-08-25T18:20:36;4.85;;;1.88;;
14770;SDS011;7477;45.222;5.688;2022-08-25T18:23:56;2.25;;;1.73;;
14770;SDS011;7477;45.222;5.688;2022-08-25T18:27:16;4.65;;;1.90;;
14770;SDS011;7477;45.222;5.688;2022-08-25T18:30:35;2.42;;;1.70;;
14770;SDS011;7477;45.222;5.688;2022-08-25T18:33:55;2.40;;;2.00;;
14770;SDS011;7477;45.222;5.688;2022-08-25T18:37:15;2.25;;;2.05;;
14770;SDS011;7477;45.222;5.688;2022-08-25T18:40:54;2.30;;;2.08;;
14770;SDS011;7477;45.222;5.688;2022-08-25T18:44:15;2.58;;;2.03;;
14770;SDS011;7477;45.222;5.688;2022-08-25T18:47:35;2.10;;;1.90;;
14770;SDS011;7477;45.222;5.688;2022-08-25T18:50:54;5.47;;;2.03;;
14770;SDS011;7477;45.222;5.688;2022-08-25T18:54:15;2.00;;;1.90;;
14770;SDS011;7477;45.222;5.688;2022-08-25T18:57:36;2.15;;;1.98;;
14770;SDS011;7477;45.222;5.688;2022-08-25T19:00:55;2.30;;;2.10;;
14770;SDS011;7477;45.222;5.688;2022-08-25T19:04:14;3.38;;;2.20;;
14770;SDS011;7477;45.222;5.688;2022-08-25T19:07:35;2.42;;;1.90;;
14770;SDS011;7477;45.222;5.688;2022-08-25T19:10:54;2.63;;;2.30;;
14770;SDS011;7477;45.222;5.688;2022-08-25T19:14:14;4.30;;;2.30;;
14770;SDS011;7477;45.222;5.688;2022-08-25T19:17:33;2.67;;;2.20;;
14770;SDS011;7477;45.222;5.688;2022-08-25T19:20:53;2.05;;;1.90;;
14770;SDS011;7477;45.222;5.688;2022-08-25T19:24:12;1.92;;;1.83;;
14770;SDS011;7477;45.222;5.688;2022-08-25T19:27:32;4.13;;;2.50;;
14770;SDS011;7477;45.222;5.688;2022-08-25T19:30:53;4.35;;;2.40;;
14770;SDS011;7477;45.222;5.688;2022-08-25T19:34:14;5.28;;;2.15;;
14770;SDS011;7477;45.222;5.688;2022-08-25T19:37:38;4.63;;;2.05;;
14770;SDS011;7477;45.222;5.688;2022-08-25T19:40:58;2.22;;;2.03;;
14770;SDS011;7477;45.222;5.688;2022-08-25T19:44:18;2.03;;;1.88;;
14770;SDS011;7477;45.222;5.688;2022-08-25T19:47:37;2.50;;;1.77;;
14770;SDS011;7477;45.222;5.688;2022-08-25T19:50:58;4.90;;;2.00;;
14770;SDS011;7477;45.222;5.688;2022-08-25T19:54:19;2.47;;;2.28;;
14770;SDS011;7477;45.222;5.688;2022-08-25T19:57:41;2.53;;;2.10;;
14770;SDS011;7477;45.222;5.688;2022-08-25T20:01:00;2.30;;;2.10;;
14770;SDS011;7477;45.222;5.688;2022-08-25T20:04:20;5.85;;;2.42;;
14770;SDS011;7477;45.222;5.688;2022-08-25T20:07:39;2.00;;;1.90;;
14770;SDS011;7477;45.222;5.688;2022-08-25T20:10:59;2.35;;;1.80;;
14770;SDS011;7477;45.222;5.688;2022-08-25T20:14:18;2.63;;;2.22;;
14770;SDS011;7477;45.222;5.688;2022-08-25T20:17:38;3.13;;;2.20;;
14770;SDS011;7477;45.222;5.688;2022-08-25T20:20:58;1.85;;;1.60;;
14770;SDS011;7477;45.222;5.688;2022-08-25T20:24:18;2.38;;;2.05;;
14770;SDS011;7477;45.222;5.688;2022-08-25T20:27:56;2.53;;;1.80;;
14770;SDS011;7477;45.222;5.688;2022-08-25T20:31:15;7.20;;;1.70;;
14770;SDS011;7477;45.222;5.688;2022-08-25T20:34:34;7.97;;;1.95;;
14770;SDS011;7477;45.222;5.688;2022-08-25T20:37:54;2.97;;;1.98;;
14770;SDS011;7477;45.222;5.688;2022-08-25T20:41:15;1.90;;;1.80;;
14770;SDS011;7477;45.222;5.688;2022-08-25T20:44:35;2.47;;;1.70;;
14770;SDS011;7477;45.222;5.688;2022-08-25T20:47:54;2.60;;;1.58;;
14770;SDS011;7477;45.222;5.688;2022-08-25T20:51:13;1.67;;;1.58;;
14770;SDS011;7477;45.222;5.688;2022-08-25T20:54:33;2.33;;;1.77;;
14770;SDS011;7477;45.222;5.688;2022-08-25T20:57:52;1.75;;;1.65;;
14770;SDS011;7477;45.222;5.688;2022-08-25T21:01:20;2.95;;;2.03;;
14770;SDS011;7477;45.222;5.688;2022-08-25T21:04:41;2.15;;;1.67;;
14770;SDS011;7477;45.222;5.688;2022-08-25T21:08:01;2.35;;;1.60;;
14770;SDS011;7477;45.222;5.688;2022-08-25T21:11:21;2.75;;;1.80;;
14770;SDS011;7477;45.222;5.688;2022-08-25T21:14:43;2.00;;;1.80;;
14770;SDS011;7477;45.222;5.688;2022-08-25T21:18:03;4.30;;;2.00;;
14770;SDS011;7477;45.222;5.688;2022-08-25T21:21:23;1.58;;;1.48;;
14770;SDS011;7477;45.222;5.688;2022-08-25T21:24:42;2.20;;;2.00;;
14770;SDS011;7477;45.222;5.688;2022-08-25T21:28:02;2.22;;;1.40;;
14770;SDS011;7477;45.222;5.688;2022-08-25T21:31:21;1.58;;;1.45;;
14770;SDS011;7477;45.222;5.688;2022-08-25T21:34:41;3.08;;;1.67;;
14770;SDS011;7477;45.222;5.688;2022-08-25T21:38:00;3.00;;;1.77;;
14770;SDS011;7477;45.222;5.688;2022-08-25T21:41:21;1.70;;;1.60;;
14770;SDS011;7477;45.222;5.688;2022-08-25T21:44:43;2.88;;;1.65;;
14770;SDS011;7477;45.222;5.688;2022-08-25T21:48:03;1.80;;;1.70;;
14770;SDS011;7477;45.222;5.688;2022-08-25T21:51:23;1.60;;;1.50;;
14770;SDS011;7477;45.222;5.688;2022-08-25T21:54:45;2.13;;;1.88;;
14770;SDS011;7477;45.222;5.688;2022-08-25T21:58:05;1.83;;;1.45;;
14770;SDS011;7477;45.222;5.688;2022-08-25T22:01:25;1.70;;;1.60;;
14770;SDS011;7477;45.222;5.688;2022-08-25T22:04:44;3.28;;;1.73;;
14770;SDS011;7477;45.222;5.688;2022-08-25T22:08:06;1.85;;;1.67;;
14770;SDS011;7477;45.222;5.688;2022-08-25T22:11:25;5.30;;;2.08;;
14770;SDS011;7477;45.222;5.688;2022-08-25T22:14:45;2.97;;;2.15;;
14770;SDS011;7477;45.222;5.688;2022-08-25T22:18:05;4.47;;;1.88;;
14770;SDS011;7477;45.222;5.688;2022-08-25T22:21:24;1.90;;;1.63;;
14770;SDS011;7477;45.222;5.688;2022-08-25T22:24:45;2.35;;;1.40;;